createdAt,value
2019-05-03T00:00:10.401Z,10.68
2019-05-03T00:02:52.217Z,10.60
2019-05-03T00:05:26.379Z,10.59
2019-05-03T00:07:57.221Z,10.60
2019-05-03T00:10:26.874Z,10.61
2019-05-03T00:12:56.569Z,10.59
2019-05-03T00:15:27.873Z,10.61
2019-05-03T00:17:57.505Z,10.57
2019-05-03T00:20:27.166Z,10.60
2019-05-03T00:22:56.830Z,10.61
2019-05-03T00:25:26.538Z,10.61
2019-05-03T00:27:56.272Z,10.71
2019-05-03T00:30:25.897Z,10.64
2019-05-03T00:32:55.705Z,10.48
2019-05-03T00:35:29.641Z,10.23
2019-05-03T00:38:02.079Z,10.04
2019-05-03T00:40:32.367Z,10.01
2019-05-03T00:43:02.425Z,9.94
2019-05-03T00:45:32.036Z,9.89
2019-05-03T00:48:02.005Z,9.81
2019-05-03T00:50:32.183Z,9.78
2019-05-03T00:53:02.307Z,9.67
2019-05-03T00:55:32.761Z,9.62
2019-05-03T00:58:02.698Z,9.57
2019-05-03T01:00:32.524Z,9.60
2019-05-03T01:03:02.380Z,9.63
2019-05-03T01:05:33.148Z,9.50
2019-05-03T01:08:02.985Z,9.48
2019-05-03T01:10:33.073Z,9.37
2019-05-03T01:13:02.905Z,9.30
2019-05-03T01:15:34.149Z,9.25
2019-05-03T01:18:05.426Z,9.24
2019-05-03T01:20:35.037Z,9.23
2019-05-03T01:23:04.683Z,9.20
2019-05-03T01:25:35.557Z,9.19
2019-05-03T01:28:05.382Z,9.22
2019-05-03T01:30:34.999Z,9.22
2019-05-03T01:33:04.647Z,9.30
2019-05-03T01:35:34.256Z,9.37
2019-05-03T01:38:03.903Z,9.40
2019-05-03T01:40:33.514Z,9.47
2019-05-03T01:43:03.150Z,9.46
2019-05-03T01:45:32.762Z,9.48
2019-05-03T01:48:21.692Z,9.53
2019-05-03T01:50:58.878Z,9.52
2019-05-03T01:53:32.131Z,9.50
2019-05-03T01:56:03.535Z,9.53
2019-05-03T01:58:32.812Z,9.48
2019-05-03T02:01:12.980Z,9.51
2019-05-03T02:03:56.307Z,9.54
2019-05-03T02:06:25.914Z,9.51
2019-05-03T02:08:55.570Z,9.55
2019-05-03T02:11:25.263Z,9.61
2019-05-03T02:13:54.905Z,9.61
2019-05-03T02:16:24.528Z,9.56
2019-05-03T02:18:54.175Z,9.54
2019-05-03T02:21:23.798Z,9.48
2019-05-03T02:23:53.437Z,9.45
2019-05-03T02:26:23.447Z,9.38
2019-05-03T02:28:53.089Z,9.43
2019-05-03T02:31:23.325Z,9.44
2019-05-03T02:33:53.564Z,9.42
2019-05-03T02:36:27.309Z,9.36
2019-05-03T02:38:57.316Z,9.28
2019-05-03T02:41:26.927Z,9.18
2019-05-03T02:43:58.053Z,9.13
2019-05-03T02:46:29.365Z,9.07
2019-05-03T02:49:09.348Z,9.04
2019-05-03T02:51:39.002Z,9.03
2019-05-03T02:54:08.630Z,9.01
2019-05-03T02:56:38.278Z,8.96
2019-05-03T02:59:07.896Z,8.97
2019-05-03T03:01:37.696Z,8.97
2019-05-03T03:04:07.314Z,8.95
2019-05-03T03:06:39.526Z,8.97
2019-05-03T03:09:09.212Z,8.97
2019-05-03T03:11:39.621Z,8.95
2019-05-03T03:14:12.279Z,8.93
2019-05-03T03:16:45.629Z,8.92
2019-05-03T03:19:17.172Z,8.89
2019-05-03T03:21:50.281Z,8.91
2019-05-03T03:24:20.648Z,8.90
2019-05-03T03:26:51.716Z,8.86
2019-05-03T03:29:25.290Z,8.83
2019-05-03T03:32:11.800Z,8.88
2019-05-03T03:34:55.451Z,8.89
2019-05-03T03:37:21.273Z,8.86
2019-05-03T03:39:51.427Z,8.92
2019-05-03T03:42:21.981Z,8.98
2019-05-03T03:44:53.003Z,8.97
2019-05-03T03:47:26.976Z,8.97
2019-05-03T03:49:55.630Z,8.93
2019-05-03T03:52:27.515Z,8.93
2019-05-03T03:55:00.530Z,8.93
2019-05-03T03:57:32.593Z,8.93
2019-05-03T04:00:07.745Z,8.89
2019-05-03T04:02:38.310Z,8.86
2019-05-03T04:05:09.669Z,8.77
2019-05-03T04:07:39.306Z,8.70
2019-05-03T04:10:09.673Z,8.73
2019-05-03T04:12:40.509Z,8.78
2019-05-03T04:15:11.935Z,8.76
2019-05-03T04:17:56.653Z,8.79
2019-05-03T04:20:28.323Z,8.84
2019-05-03T04:22:58.635Z,8.74
2019-05-03T04:25:28.990Z,8.72
2019-05-03T04:27:58.619Z,8.74
2019-05-03T04:30:28.238Z,8.67
2019-05-03T04:32:57.877Z,8.65
2019-05-03T04:35:27.506Z,8.68
2019-05-03T04:37:57.149Z,8.72
2019-05-03T04:40:26.754Z,8.74
2019-05-03T04:42:56.395Z,8.77
2019-05-03T04:45:26.051Z,8.84
2019-05-03T04:47:56.263Z,8.87
2019-05-03T04:50:26.116Z,8.82
2019-05-03T04:52:56.630Z,8.79
2019-05-03T04:55:27.045Z,8.79
2019-05-03T04:57:56.711Z,8.84
2019-05-03T05:00:26.586Z,8.87
2019-05-03T05:02:56.230Z,8.88
2019-05-03T05:05:26.475Z,8.75
2019-05-03T05:07:56.190Z,8.85
2019-05-03T05:10:26.403Z,8.95
2019-05-03T05:12:56.085Z,8.97
2019-05-03T05:15:26.715Z,8.92
2019-05-03T05:18:05.764Z,8.93
2019-05-03T05:20:45.907Z,8.86
2019-05-03T05:23:15.548Z,8.91
2019-05-03T05:25:49.539Z,8.98
2019-05-03T05:28:29.754Z,8.87
2019-05-03T05:30:59.398Z,8.94
2019-05-03T05:33:29.088Z,9.04
2019-05-03T05:35:58.731Z,8.95
2019-05-03T05:38:28.345Z,9.06
2019-05-03T05:40:57.984Z,9.19
2019-05-03T05:43:27.640Z,9.19
2019-05-03T05:45:58.857Z,9.19
2019-05-03T05:48:30.306Z,9.29
2019-05-03T05:50:59.955Z,9.36
2019-05-03T05:53:29.573Z,9.23
2019-05-03T05:56:06.804Z,9.22
2019-05-03T05:58:38.055Z,9.13
2019-05-03T06:01:25.022Z,9.09
2019-05-03T06:03:55.127Z,9.13
2019-05-03T06:06:26.428Z,9.17
2019-05-03T06:08:57.680Z,9.09
2019-05-03T06:11:45.225Z,8.83
2019-05-03T06:14:28.381Z,8.79
2019-05-03T06:17:02.367Z,8.85
2019-05-03T06:19:34.528Z,8.90
2019-05-03T06:22:11.783Z,8.73
2019-05-03T06:24:59.220Z,8.68
2019-05-03T06:27:30.502Z,8.63
2019-05-03T06:30:01.779Z,8.67
2019-05-03T06:32:34.559Z,8.74
2019-05-03T06:35:05.626Z,8.96
2019-05-03T06:37:36.919Z,9.31
2019-05-03T06:40:09.581Z,9.42
2019-05-03T06:42:51.637Z,9.28
2019-05-03T06:45:11.779Z,8.94
2019-05-03T06:47:48.078Z,8.62
2019-05-03T06:50:14.498Z,8.57
2019-05-03T06:52:44.636Z,8.62
2019-05-03T06:55:14.653Z,8.70
2019-05-03T06:57:49.491Z,8.94
2019-05-03T07:00:35.066Z,9.10
2019-05-03T07:03:12.011Z,9.10
2019-05-03T07:05:48.976Z,8.84
2019-05-03T07:08:38.268Z,8.92
2019-05-03T07:11:09.083Z,8.94
2019-05-03T07:13:38.725Z,9.06
2019-05-03T07:16:08.356Z,9.07
2019-05-03T07:18:37.980Z,9.04
2019-05-03T07:21:07.633Z,9.12
2019-05-03T07:23:37.247Z,9.21
2019-05-03T07:26:06.894Z,9.38
2019-05-03T07:28:46.696Z,9.45
2019-05-03T07:31:07.854Z,9.78
2019-05-03T07:33:37.473Z,9.62
2019-05-03T07:36:07.119Z,9.68
2019-05-03T07:38:36.731Z,9.74
2019-05-03T07:41:06.446Z,9.86
2019-05-03T07:43:36.265Z,10.02
2019-05-03T07:46:06.020Z,10.14
2019-05-03T07:48:35.860Z,9.82
2019-05-03T07:51:05.719Z,9.99
2019-05-03T07:53:35.318Z,10.25
2019-05-03T07:56:06.875Z,10.19
2019-05-03T07:58:38.380Z,10.06
2019-05-03T08:01:14.818Z,10.08
2019-05-03T08:03:45.179Z,9.97
2019-05-03T08:06:15.053Z,9.95
2019-05-03T08:08:45.439Z,9.87
2019-05-03T08:11:15.167Z,10.04
2019-05-03T08:13:44.810Z,10.14
2019-05-03T08:16:16.088Z,10.16
2019-05-03T08:18:45.918Z,10.22
2019-05-03T08:21:15.491Z,10.57
2019-05-03T08:23:45.377Z,10.42
2019-05-03T08:26:15.403Z,10.23
2019-05-03T08:28:45.099Z,10.47
2019-05-03T08:31:31.218Z,10.96
2019-05-03T08:34:04.686Z,11.35
2019-05-03T08:36:35.494Z,11.19
2019-05-03T08:39:06.209Z,11.32
2019-05-03T08:41:37.467Z,10.86
2019-05-03T08:44:07.138Z,10.94
2019-05-03T08:46:36.960Z,10.72
2019-05-03T08:49:06.616Z,10.45
2019-05-03T08:51:36.238Z,10.43
2019-05-03T08:54:05.899Z,11.01
2019-05-03T08:56:35.530Z,11.53
2019-05-03T08:59:05.195Z,12.20
2019-05-03T09:01:37.726Z,12.46
2019-05-03T09:04:06.169Z,12.10
2019-05-03T09:06:35.795Z,12.14
2019-05-03T09:09:09.122Z,11.84
2019-05-03T09:11:38.740Z,11.92
2019-05-03T09:14:15.602Z,12.03
2019-05-03T09:16:45.456Z,12.20
2019-05-03T09:19:15.191Z,12.48
2019-05-03T09:21:45.400Z,12.10
2019-05-03T09:24:15.256Z,11.95
2019-05-03T09:26:45.143Z,11.68
2019-05-03T09:29:14.871Z,11.75
2019-05-03T09:31:44.738Z,12.11
2019-05-03T09:34:14.841Z,12.54
2019-05-03T09:36:44.907Z,13.00
2019-05-03T09:39:14.938Z,13.39
2019-05-03T09:41:45.103Z,13.05
2019-05-03T09:44:15.164Z,13.54
2019-05-03T09:46:44.789Z,13.46
2019-05-03T09:49:16.574Z,13.83
2019-05-03T09:51:45.799Z,13.91
2019-05-03T09:54:17.092Z,14.35
2019-05-03T09:56:59.282Z,14.39
2019-05-03T09:59:29.674Z,14.62
2019-05-03T10:01:59.592Z,14.83
2019-05-03T10:04:29.250Z,14.07
2019-05-03T10:06:58.901Z,13.29
2019-05-03T10:09:28.537Z,13.92
2019-05-03T10:11:58.326Z,15.02
2019-05-03T10:14:27.959Z,15.61
2019-05-03T10:17:05.528Z,15.20
2019-05-03T10:19:40.104Z,15.69
2019-05-03T10:22:06.545Z,15.32
2019-05-03T10:24:36.178Z,15.62
2019-05-03T10:27:05.828Z,16.27
2019-05-03T10:29:35.456Z,17.04
2019-05-03T10:32:12.232Z,17.06
2019-05-03T10:34:43.600Z,17.13
2019-05-03T10:37:29.696Z,16.29
2019-05-03T10:40:00.943Z,15.52
2019-05-03T10:42:30.651Z,15.38
2019-05-03T10:45:00.281Z,14.65
2019-05-03T10:47:29.930Z,15.09
2019-05-03T10:49:59.552Z,15.41
2019-05-03T10:52:30.831Z,16.30
2019-05-03T10:55:00.451Z,16.71
2019-05-03T10:57:31.742Z,17.86
2019-05-03T11:00:01.356Z,17.33
2019-05-03T11:02:38.301Z,16.17
2019-05-03T11:05:08.136Z,16.33
2019-05-03T11:07:37.784Z,17.39
2019-05-03T11:10:07.751Z,17.60
2019-05-03T11:12:37.467Z,16.93
2019-05-03T11:15:10.303Z,16.47
2019-05-03T11:17:39.951Z,15.99
2019-05-03T11:20:09.843Z,16.47
2019-05-03T11:22:39.691Z,16.61
2019-05-03T11:25:09.483Z,16.23
2019-05-03T11:27:46.755Z,16.20
2019-05-03T11:30:17.406Z,15.82
2019-05-03T11:32:48.690Z,15.35
2019-05-03T11:35:20.176Z,14.80
2019-05-03T11:37:57.152Z,14.42
2019-05-03T11:40:26.801Z,13.93
2019-05-03T11:42:58.062Z,13.51
2019-05-03T11:45:27.713Z,13.34
2019-05-03T11:47:57.346Z,13.15
2019-05-03T11:50:26.996Z,13.01
2019-05-03T11:52:56.615Z,13.66
2019-05-03T11:55:26.952Z,14.49
2019-05-03T11:57:56.771Z,14.93
2019-05-03T12:00:28.096Z,14.52
2019-05-03T12:03:02.330Z,14.34
2019-05-03T12:05:32.754Z,13.83
2019-05-03T12:08:02.372Z,13.83
2019-05-03T12:10:50.786Z,13.63
2019-05-03T12:13:06.861Z,13.67
2019-05-03T12:15:36.581Z,13.28
2019-05-03T12:18:10.773Z,13.34
2019-05-03T12:20:41.443Z,13.37
2019-05-03T12:23:12.182Z,15.01
2019-05-03T12:25:43.391Z,15.54
2019-05-03T12:28:15.306Z,16.44
2019-05-03T12:30:45.085Z,15.92
2019-05-03T12:33:15.420Z,15.98
2019-05-03T12:35:46.161Z,15.68
2019-05-03T12:38:16.615Z,15.13
2019-05-03T12:40:46.280Z,14.67
2019-05-03T12:43:16.018Z,14.75
2019-05-03T12:45:45.659Z,14.56
2019-05-03T12:48:15.601Z,14.37
2019-05-03T12:50:46.442Z,14.65
2019-05-03T12:53:16.625Z,14.55
2019-05-03T12:55:46.281Z,14.47
2019-05-03T12:58:15.905Z,14.50
2019-05-03T13:00:50.106Z,14.59
2019-05-03T13:03:21.365Z,14.73
2019-05-03T13:05:51.188Z,15.28
2019-05-03T13:08:40.036Z,15.31
2019-05-03T13:11:09.744Z,15.11
2019-05-03T13:13:39.389Z,15.04
2019-05-03T13:16:10.396Z,14.62
2019-05-03T13:18:40.650Z,14.38
2019-05-03T13:21:10.268Z,14.57
2019-05-03T13:23:39.916Z,14.20
2019-05-03T13:26:09.546Z,14.39
2019-05-03T13:28:39.201Z,14.46
2019-05-03T13:31:08.821Z,14.29
2019-05-03T13:33:38.466Z,14.06
2019-05-03T13:36:08.087Z,14.11
2019-05-03T13:38:40.488Z,14.36
2019-05-03T13:41:10.312Z,14.33
2019-05-03T13:43:39.951Z,14.29
2019-05-03T13:46:09.576Z,14.22
2019-05-03T13:48:45.309Z,14.10
2019-05-03T13:51:10.530Z,14.16
2019-05-03T13:53:40.171Z,14.20
2019-05-03T13:56:09.787Z,14.33
2019-05-03T13:58:39.428Z,14.63
2019-05-03T14:01:09.055Z,14.66
2019-05-03T14:03:38.699Z,14.60
2019-05-03T14:06:09.370Z,14.68
2019-05-03T14:08:39.249Z,14.50
2019-05-03T14:11:08.868Z,14.62
2019-05-03T14:13:38.510Z,14.73
2019-05-03T14:16:08.208Z,14.39
2019-05-03T14:18:41.174Z,14.45
2019-05-03T14:21:20.155Z,14.63
2019-05-03T14:24:07.122Z,14.44
2019-05-03T14:26:36.744Z,14.13
2019-05-03T14:29:06.964Z,13.80
2019-05-03T14:31:36.580Z,13.53
2019-05-03T14:34:06.294Z,13.58
2019-05-03T14:36:36.083Z,13.65
2019-05-03T14:39:09.975Z,13.76
2019-05-03T14:41:39.574Z,13.85
2019-05-03T14:44:09.229Z,13.98
2019-05-03T14:46:39.105Z,13.93
2019-05-03T14:49:08.755Z,13.91
2019-05-03T14:51:38.382Z,14.08
2019-05-03T14:54:09.192Z,14.27
2019-05-03T14:56:40.465Z,14.29
2019-05-03T14:59:14.918Z,14.15
2019-05-03T15:02:05.134Z,13.89
2019-05-03T15:04:35.048Z,13.91
2019-05-03T15:07:06.021Z,13.74
2019-05-03T15:09:35.917Z,13.39
2019-05-03T15:12:05.653Z,13.23
2019-05-03T15:14:35.312Z,13.10
2019-05-03T15:17:05.423Z,13.20
2019-05-03T15:19:35.161Z,13.30
2019-05-03T15:22:05.604Z,13.29
2019-05-03T15:24:35.399Z,13.25
2019-05-03T15:27:05.091Z,13.32
2019-05-03T15:29:35.459Z,13.16
2019-05-03T15:32:05.328Z,13.25
2019-05-03T15:34:35.588Z,13.28
2019-05-03T15:37:05.696Z,13.16
2019-05-03T15:39:35.425Z,13.31
2019-05-03T15:42:05.397Z,13.27
2019-05-03T15:44:54.553Z,13.04
2019-05-03T15:47:31.642Z,13.11
2019-05-03T15:50:01.285Z,13.27
2019-05-03T15:52:30.933Z,13.34
2019-05-03T15:55:00.562Z,12.93
2019-05-03T15:57:30.211Z,12.92
2019-05-03T15:59:59.832Z,12.99
2019-05-03T16:02:29.477Z,13.17
2019-05-03T16:04:59.099Z,13.54
2019-05-03T16:07:28.752Z,13.83
2019-05-03T16:09:58.376Z,13.58
2019-05-03T16:12:28.037Z,13.51
2019-05-03T16:14:57.655Z,13.47
2019-05-03T16:17:27.300Z,13.45
2019-05-03T16:19:56.928Z,13.35
2019-05-03T16:22:26.578Z,13.25
2019-05-03T16:24:56.217Z,13.06
2019-05-03T16:27:29.931Z,12.96
2019-05-03T16:30:00.126Z,12.84
2019-05-03T16:32:29.777Z,12.72
2019-05-03T16:34:59.405Z,12.60
2019-05-03T16:37:29.048Z,12.52
2019-05-03T16:39:58.748Z,12.53
2019-05-03T16:42:28.400Z,12.54
2019-05-03T16:44:58.030Z,12.39
2019-05-03T16:47:27.680Z,12.37
2019-05-03T16:49:57.305Z,12.31
2019-05-03T16:52:26.961Z,12.24
2019-05-03T16:54:56.589Z,12.23
2019-05-03T16:57:26.241Z,12.11
2019-05-03T16:59:55.876Z,12.08
2019-05-03T17:02:25.526Z,12.01
2019-05-03T17:05:04.767Z,11.94
2019-05-03T17:07:35.717Z,11.83
2019-05-03T17:10:10.151Z,11.79
2019-05-03T17:12:39.804Z,11.75
2019-05-03T17:15:09.673Z,11.60
2019-05-03T17:17:39.317Z,11.58
2019-05-03T17:20:09.314Z,11.52
2019-05-03T17:22:38.945Z,11.49
2019-05-03T17:25:08.945Z,11.48
2019-05-03T17:27:38.569Z,11.48
2019-05-03T17:30:08.353Z,11.44
2019-05-03T17:32:37.973Z,11.41
2019-05-03T17:35:07.959Z,11.35
2019-05-03T17:37:37.595Z,11.31
2019-05-03T17:40:09.923Z,11.26
2019-05-03T17:42:55.698Z,11.18
2019-05-03T17:45:26.993Z,11.18
2019-05-03T17:47:56.623Z,11.24
2019-05-03T17:50:26.344Z,11.26
2019-05-03T17:53:15.445Z,11.18
2019-05-03T17:55:46.763Z,11.13
2019-05-03T17:58:34.948Z,11.09
2019-05-03T18:01:24.183Z,11.06
2019-05-03T18:04:06.109Z,11.01
2019-05-03T18:06:28.472Z,10.98
2019-05-03T18:09:04.441Z,10.96
2019-05-03T18:11:41.399Z,10.99
2019-05-03T18:14:11.030Z,10.97
2019-05-03T18:16:40.673Z,10.90
2019-05-03T18:19:10.302Z,10.86
2019-05-03T18:21:39.956Z,10.87
2019-05-03T18:24:09.588Z,10.83
2019-05-03T18:26:39.241Z,10.73
2019-05-03T18:29:08.862Z,10.66
2019-05-03T18:31:38.575Z,10.64
2019-05-03T18:34:18.695Z,10.65
2019-05-03T18:36:39.650Z,10.61
2019-05-03T18:39:09.717Z,10.59
2019-05-03T18:41:39.357Z,10.57
2019-05-03T18:44:16.303Z,10.51
2019-05-03T18:46:50.272Z,10.53
2019-05-03T18:49:19.895Z,10.48
2019-05-03T18:51:49.544Z,10.43
2019-05-03T18:54:19.214Z,10.41
2019-05-03T18:56:48.864Z,10.44
2019-05-03T18:59:18.489Z,10.41
2019-05-03T19:01:48.203Z,10.44
2019-05-03T19:04:34.777Z,10.41
2019-05-03T19:07:04.513Z,10.32
2019-05-03T19:09:38.713Z,10.26
2019-05-03T19:12:10.206Z,10.20
2019-05-03T19:14:39.865Z,10.12
2019-05-03T19:17:15.419Z,10.05
2019-05-03T19:19:46.851Z,10.00
2019-05-03T19:22:16.483Z,9.98
2019-05-03T19:24:46.140Z,9.96
2019-05-03T19:27:15.773Z,9.96
2019-05-03T19:29:45.687Z,9.85
2019-05-03T19:32:15.325Z,9.85
2019-05-03T19:34:50.687Z,9.89
2019-05-03T19:37:16.311Z,9.90
2019-05-03T19:39:45.973Z,9.95
2019-05-03T19:42:15.604Z,9.95
2019-05-03T19:44:45.440Z,9.90
2019-05-03T19:47:15.709Z,9.87
2019-05-03T19:49:45.498Z,9.89
2019-05-03T19:52:16.750Z,9.84
2019-05-03T19:54:46.404Z,9.74
2019-05-03T19:57:17.768Z,9.67
2019-05-03T19:59:56.515Z,9.54
2019-05-03T20:02:45.441Z,9.54
2019-05-03T20:05:28.588Z,9.48
2019-05-03T20:08:05.552Z,9.38
2019-05-03T20:10:35.406Z,9.19
2019-05-03T20:13:05.013Z,9.06
2019-05-03T20:15:34.668Z,9.01
2019-05-03T20:18:04.928Z,8.97
2019-05-03T20:20:34.631Z,9.00
2019-05-03T20:23:05.274Z,9.01
2019-05-03T20:25:35.251Z,8.98
2019-05-03T20:28:05.180Z,9.04
2019-05-03T20:30:35.086Z,9.08
2019-05-03T20:33:04.700Z,9.10
2019-05-03T20:35:35.696Z,9.08
2019-05-03T20:38:05.365Z,9.12
2019-05-03T20:40:35.202Z,9.09
2019-05-03T20:43:06.456Z,8.98
2019-05-03T20:45:37.746Z,8.88
2019-05-03T20:48:11.969Z,8.85
2019-05-03T20:50:41.626Z,8.70
2019-05-03T20:53:11.259Z,8.67
2019-05-03T20:55:40.921Z,8.57
2019-05-03T20:58:11.468Z,8.34
2019-05-03T21:00:41.218Z,8.22
2019-05-03T21:03:10.836Z,8.16
2019-05-03T21:05:40.488Z,8.15
2019-05-03T21:08:10.112Z,8.13
2019-05-03T21:10:39.808Z,8.20
2019-05-03T21:13:09.423Z,8.24
2019-05-03T21:15:58.568Z,8.27
2019-05-03T21:18:38.713Z,8.29
2019-05-03T21:21:09.994Z,8.33
2019-05-03T21:23:53.076Z,8.35
2019-05-03T21:26:22.914Z,8.38
2019-05-03T21:28:52.761Z,8.34
2019-05-03T21:31:24.537Z,8.31
2019-05-03T21:33:55.248Z,8.28
2019-05-03T21:36:25.481Z,8.27
2019-05-03T21:38:55.180Z,8.24
2019-05-03T21:41:25.010Z,8.26
2019-05-03T21:43:54.681Z,8.21
2019-05-03T21:46:34.586Z,8.19
2019-05-03T21:49:17.615Z,8.16
2019-05-03T21:51:47.237Z,8.14
2019-05-03T21:54:16.921Z,8.01
2019-05-03T21:56:46.517Z,8.04
2019-05-03T21:59:16.163Z,8.06
2019-05-03T22:01:46.767Z,8.04
2019-05-03T22:04:16.412Z,8.07
2019-05-03T22:06:46.041Z,8.12
2019-05-03T22:09:15.756Z,8.13
2019-05-03T22:11:45.380Z,8.15
2019-05-03T22:14:16.664Z,8.17
2019-05-03T22:16:47.933Z,8.11
2019-05-03T22:19:19.520Z,8.09
2019-05-03T22:21:55.285Z,8.07
2019-05-03T22:24:26.657Z,8.04
2019-05-03T22:26:57.946Z,8.01
2019-05-03T22:29:27.775Z,8.06
2019-05-03T22:31:57.400Z,8.05
2019-05-03T22:34:27.052Z,8.11
2019-05-03T22:36:56.673Z,8.11
2019-05-03T22:39:26.328Z,8.09
2019-05-03T22:41:55.975Z,8.03
2019-05-03T22:44:25.618Z,8.04
2019-05-03T22:46:55.395Z,8.01
2019-05-03T22:49:25.984Z,7.94
2019-05-03T22:51:55.809Z,7.95
2019-05-03T22:54:25.533Z,7.96
2019-05-03T22:56:55.645Z,7.92
2019-05-03T22:59:25.474Z,7.88
2019-05-03T23:01:55.377Z,7.77
2019-05-03T23:04:25.507Z,7.81
2019-05-03T23:06:55.857Z,7.80
2019-05-03T23:09:25.529Z,7.80
2019-05-03T23:11:55.495Z,7.83
2019-05-03T23:14:25.724Z,7.82
2019-05-03T23:16:55.544Z,7.86
2019-05-03T23:19:25.272Z,7.90
2019-05-03T23:22:11.210Z,7.90
2019-05-03T23:24:40.839Z,7.90
2019-05-03T23:27:10.587Z,7.96
2019-05-03T23:29:40.203Z,7.99
2019-05-03T23:32:09.849Z,8.00
2019-05-03T23:34:39.478Z,7.98
2019-05-03T23:37:09.135Z,7.92
2019-05-03T23:39:38.853Z,7.88
2019-05-03T23:42:08.595Z,7.85
2019-05-03T23:44:38.222Z,7.74
2019-05-03T23:47:25.694Z,7.57
2019-05-03T23:49:55.508Z,7.64
2019-05-03T23:52:26.790Z,7.62
2019-05-03T23:54:58.050Z,7.55
2019-05-03T23:57:27.701Z,7.48
2019-05-03T23:59:57.325Z,7.49
